Terminal Aerodrome Forecast
Issued by NWS Bismarck, ND

Home | Current Version | Previous Version | Text Only | Print | Product List | Glossary Off
Versions: 1 2 3 4 5 6 7 8 9 10 11 12 13 14 15 16 17 18 19 20 21

717
FTUS43 KBIS 160711 AAB
TAFBIS
TAF AMD
KBIS 160711Z 1607/1706 33004KT P6SM SCT007 OVC010
     FM160900 33004KT 3SM BR OVC005
     FM161200 33005KT 1SM BR OVC003
     FM161500 34006KT P6SM BKN010
     FM170300 VRB03KT P6SM SKC=

USA.gov is the U.S. government's official web portal to all federal, state and local government web resources and services.